Time;durP1;ratioP1;P1;durP2;ratioP2;P2;SDS_P1;SDS_P2;PMS_P1;PMS_P2;Temp;Humidity;BMP_temperature;BMP_pressure;BME280_temperature;BME280_humidity;BME280_pressure;Samples;Min_cycle;Max_cycle;Signal;HPM_P1;HPM_P2
2021/10/01 00:01:14;;;;;;;4.13;3.00;;;6.50;99.90;;;;;;5100807;28;20422;-81
2021/10/01 00:03:40;;;;;;;3.37;2.70;;;6.50;99.90;;;;;;5099681;28;20248;-81
2021/10/01 00:06:06;;;;;;;3.47;2.60;;;6.50;99.90;;;;;;5101825;28;20552;-81
2021/10/01 00:08:32;;;;;;;5.57;3.03;;;6.50;99.90;;;;;;5101472;28;20207;-81
2021/10/01 00:10:58;;;;;;;4.17;2.87;;;6.50;99.90;;;;;;5102164;28;20180;-81
2021/10/01 00:13:25;;;;;;;3.30;3.00;;;6.50;99.90;;;;;;5101990;28;20452;-81
2021/10/01 00:15:51;;;;;;;4.33;2.50;;;6.50;99.90;;;;;;5102777;28;20553;-81
2021/10/01 00:18:17;;;;;;;5.60;2.83;;;6.50;99.90;;;;;;5102616;28;20454;-81
2021/10/01 00:20:42;;;;;;;4.10;3.10;;;6.50;99.90;;;;;;5103238;28;20253;-81
2021/10/01 00:23:08;;;;;;;5.40;3.17;;;6.40;99.90;;;;;;5102001;28;20172;-82
2021/10/01 00:25:34;;;;;;;3.70;2.77;;;6.40;99.90;;;;;;5103516;28;20176;-81
2021/10/01 00:28:00;;;;;;;4.67;2.80;;;6.40;99.90;;;;;;5102290;28;20208;-82
2021/10/01 00:30:25;;;;;;;3.80;2.93;;;6.40;99.90;;;;;;5104247;28;20178;-81
2021/10/01 00:32:53;;;;;;;4.77;3.10;;;6.40;99.90;;;;;;5103958;28;20442;-81
2021/10/01 00:35:19;;;;;;;4.80;3.20;;;6.40;99.90;;;;;;5101483;28;20543;-81
2021/10/01 00:37:46;;;;;;;3.40;2.77;;;6.40;99.90;;;;;;5102936;28;20506;-81
2021/10/01 00:40:12;;;;;;;5.03;2.73;;;6.40;99.90;;;;;;5101391;28;20418;-81
2021/10/01 00:42:38;;;;;;;4.33;3.00;;;6.30;99.90;;;;;;5101003;28;20204;-81
2021/10/01 00:45:04;;;;;;;4.90;3.03;;;6.30;99.90;;;;;;5100865;28;20504;-81
2021/10/01 00:47:30;;;;;;;5.47;3.47;;;6.30;99.90;;;;;;5102298;28;20476;-81
2021/10/01 00:49:56;;;;;;;5.53;3.13;;;6.30;99.90;;;;;;5101500;28;20426;-81
2021/10/01 00:52:22;;;;;;;6.80;3.40;;;6.30;99.90;;;;;;5102978;28;20184;-81
2021/10/01 00:54:48;;;;;;;4.10;2.90;;;6.20;99.90;;;;;;5100552;28;20191;-81
2021/10/01 00:57:14;;;;;;;4.50;2.73;;;6.20;99.90;;;;;;5100716;28;20246;-81
2021/10/01 00:59:41;;;;;;;3.97;2.67;;;6.20;99.90;;;;;;5102357;28;20437;-80
2021/10/01 01:02:07;;;;;;;5.70;2.80;;;6.20;99.90;;;;;;5101876;28;20168;-81
2021/10/01 01:04:33;;;;;;;4.17;3.17;;;6.20;99.90;;;;;;5109680;28;20180;-81
2021/10/01 01:07:18;;;;;;;3.67;2.37;;;6.20;99.90;;;;;;5109074;28;20414;-81
2021/10/01 01:10:10;;;;;;;6.00;3.13;;;6.20;99.90;;;;;;5101205;28;20410;-81
2021/10/01 01:12:44;;;;;;;3.97;2.80;;;6.10;99.90;;;;;;5108037;28;20187;-81
2021/10/01 01:15:37;;;;;;;3.30;2.80;;;6.10;99.90;;;;;;5113065;28;20438;-81
2021/10/01 01:18:13;;;;;;;5.47;3.13;;;6.10;99.90;;;;;;5108375;28;20488;-81
2021/10/01 01:20:48;;;;;;;8.30;2.70;;;6.10;99.90;;;;;;5107631;28;20453;-81
2021/10/01 01:23:52;;;;;;;3.97;2.97;;;6.10;99.90;;;;;;5113847;28;20473;-81
2021/10/01 01:26:57;;;;;;;4.43;3.17;;;6.10;99.90;;;;;;5101803;28;20394;-81
2021/10/01 01:29:36;;;;;;;5.93;3.03;;;6.10;99.90;;;;;;5100728;28;20402;-81
2021/10/01 01:32:13;;;;;;;4.40;2.67;;;6.20;99.90;;;;;;5102032;28;20390;-81
2021/10/01 01:34:53;;;;;;;7.30;2.53;;;6.20;99.90;;;;;;5102053;28;20424;-81
2021/10/01 01:37:24;;;;;;;5.27;3.00;;;6.10;99.90;;;;;;5102515;28;20459;-81
2021/10/01 01:39:51;;;;;;;3.13;2.83;;;6.00;99.90;;;;;;5101967;28;20415;-81
2021/10/01 01:42:18;;;;;;;3.73;2.50;;;6.00;99.90;;;;;;5099389;28;21003;-81
2021/10/01 01:44:46;;;;;;;3.50;2.63;;;6.00;99.90;;;;;;5100619;28;20407;-81
2021/10/01 01:47:13;;;;;;;7.00;2.63;;;6.00;99.90;;;;;;5099859;28;20523;-81
2021/10/01 01:49:41;;;;;;;3.23;2.90;;;6.00;99.90;;;;;;5099094;28;20417;-81
2021/10/01 01:52:07;;;;;;;4.73;2.63;;;6.00;99.90;;;;;;5099594;28;20478;-81
2021/10/01 01:54:34;;;;;;;2.93;2.47;;;6.00;99.90;;;;;;5099921;28;20414;-81
2021/10/01 01:57:01;;;;;;;6.27;2.93;;;6.00;99.90;;;;;;5099370;28;20414;-81
2021/10/01 01:59:28;;;;;;;3.73;2.67;;;6.00;99.90;;;;;;5098742;28;20505;-81
2021/10/01 02:01:56;;;;;;;7.13;2.73;;;6.00;99.90;;;;;;5100381;28;20489;-81
2021/10/01 02:04:23;;;;;;;3.10;1.83;;;5.90;99.90;;;;;;5099033;28;20181;-82
2021/10/01 02:06:50;;;;;;;2.80;2.50;;;5.90;99.90;;;;;;5098705;28;20436;-81
2021/10/01 02:09:17;;;;;;;4.43;2.40;;;5.90;99.90;;;;;;5098930;28;20406;-81
2021/10/01 02:11:46;;;;;;;2.90;2.30;;;5.90;99.90;;;;;;5098882;28;20424;-81
2021/10/01 02:14:16;;;;;;;3.87;2.40;;;5.90;99.90;;;;;;5100278;28;20908;-81
2021/10/01 02:16:44;;;;;;;4.63;2.37;;;5.80;99.90;;;;;;5100110;28;20429;-81
2021/10/01 02:19:12;;;;;;;5.73;2.60;;;5.80;99.90;;;;;;5098720;28;20454;-81
2021/10/01 02:21:40;;;;;;;3.27;2.40;;;5.90;99.90;;;;;;5099696;28;20408;-81
2021/10/01 02:24:05;;;;;;;7.30;2.30;;;5.90;99.90;;;;;;5099932;28;20156;-81
2021/10/01 02:26:48;;;;;;;3.40;2.27;;;5.90;99.90;;;;;;5099723;28;20437;-81
2021/10/01 02:29:23;;;;;;;2.60;2.27;;;5.90;99.90;;;;;;5099521;28;20167;-81
2021/10/01 02:32:19;;;;;;;3.37;2.40;;;5.80;99.90;;;;;;5099540;28;20493;-81
2021/10/01 02:34:46;;;;;;;3.27;2.20;;;5.80;99.90;;;;;;5101870;28;20398;-81
2021/10/01 02:37:13;;;;;;;2.07;1.87;;;5.80;99.90;;;;;;5099532;28;20853;-81
2021/10/01 02:39:42;;;;;;;2.83;2.50;;;5.80;99.90;;;;;;5096274;28;20422;-80
2021/10/01 02:42:10;;;;;;;5.50;2.70;;;5.80;99.90;;;;;;5095154;28;20425;-81
2021/10/01 02:44:37;;;;;;;2.50;2.30;;;5.80;99.90;;;;;;5096498;28;20425;-81
2021/10/01 02:47:04;;;;;;;2.20;2.00;;;5.80;99.90;;;;;;5098153;28;20950;-81
2021/10/01 02:49:30;;;;;;;4.43;2.50;;;5.80;99.90;;;;;;5099369;28;20410;-81
2021/10/01 02:52:02;;;;;;;5.90;2.43;;;5.80;99.90;;;;;;5099704;28;20425;-81
2021/10/01 02:54:59;;;;;;;2.20;2.00;;;5.80;99.90;;;;;;5099664;28;20160;-81
2021/10/01 02:57:32;;;;;;;2.37;2.17;;;5.70;99.90;;;;;;5071669;28;20565;-81
2021/10/01 03:00:03;;;;;;;2.53;2.33;;;5.70;99.90;;;;;;5098942;28;20488;-81
2021/10/01 03:02:31;;;;;;;5.03;2.17;;;5.70;99.90;;;;;;5101051;28;20398;-81
2021/10/01 03:04:57;;;;;;;2.30;1.97;;;5.60;99.90;;;;;;5100341;28;20417;-81
2021/10/01 03:07:26;;;;;;;2.67;2.30;;;5.50;99.90;;;;;;5100724;28;20460;-81
2021/10/01 03:09:53;;;;;;;2.57;2.37;;;5.60;99.90;;;;;;5101124;28;20414;-81
2021/10/01 03:12:21;;;;;;;4.00;2.23;;;5.50;99.90;;;;;;5100001;28;20463;-82
2021/10/01 03:14:49;;;;;;;3.33;2.50;;;5.50;99.90;;;;;;5098050;28;20607;-81
2021/10/01 03:17:15;;;;;;;2.67;2.30;;;5.50;99.90;;;;;;5097986;28;20445;-81
2021/10/01 03:19:42;;;;;;;3.20;2.00;;;5.50;99.90;;;;;;5097969;28;20414;-81
2021/10/01 03:22:08;;;;;;;2.30;2.03;;;5.50;99.90;;;;;;5098168;28;20172;-81
2021/10/01 03:24:35;;;;;;;2.10;1.90;;;5.50;99.90;;;;;;5097018;28;20488;-81
2021/10/01 03:27:01;;;;;;;4.03;2.00;;;5.50;99.90;;;;;;5096872;28;20434;-81
2021/10/01 03:29:27;;;;;;;2.23;2.03;;;5.40;99.90;;;;;;5096899;28;20410;-81
2021/10/01 03:31:52;;;;;;;2.40;1.70;;;5.50;99.90;;;;;;5098858;28;20180;-81
2021/10/01 03:34:18;;;;;;;3.07;2.20;;;5.50;99.90;;;;;;5098459;28;20896;-81
2021/10/01 03:36:44;;;;;;;2.43;2.00;;;5.50;99.90;;;;;;5096907;28;20593;-81
2021/10/01 03:39:11;;;;;;;3.03;1.97;;;5.50;99.90;;;;;;5097111;28;20200;-81
2021/10/01 03:41:37;;;;;;;2.43;2.20;;;5.50;99.90;;;;;;5097189;28;20225;-81
2021/10/01 03:44:04;;;;;;;2.67;2.00;;;5.50;99.90;;;;;;5098013;28;20406;-81
2021/10/01 03:46:30;;;;;;;4.03;1.93;;;5.50;99.90;;;;;;5098640;28;20769;-81
2021/10/01 03:48:56;;;;;;;2.50;1.93;;;5.50;99.90;;;;;;5097761;28;20483;-81
2021/10/01 03:51:23;;;;;;;2.17;1.93;;;5.60;99.90;;;;;;5098683;28;20406;-81
2021/10/01 03:53:50;;;;;;;2.90;1.60;;;5.50;99.90;;;;;;5099308;28;20180;-81
2021/10/01 03:56:16;;;;;;;2.87;1.80;;;5.60;99.90;;;;;;5100729;28;20418;-81
2021/10/01 03:58:48;;;;;;;2.23;1.90;;;5.60;99.90;;;;;;5102481;28;21006;-81
2021/10/01 04:01:14;;;;;;;1.70;1.60;;;5.60;99.90;;;;;;5104385;28;20168;-81
2021/10/01 04:03:40;;;;;;;4.73;1.87;;;5.60;99.90;;;;;;5103284;28;20417;-80
2021/10/01 04:06:06;;;;;;;1.90;1.40;;;5.60;99.90;;;;;;5101059;28;20173;-81
2021/10/01 04:08:32;;;;;;;4.97;1.70;;;5.70;99.90;;;;;;5099792;28;20203;-81
2021/10/01 04:10:58;;;;;;;1.70;1.60;;;5.70;99.90;;;;;;5099470;28;20204;-81
2021/10/01 04:13:23;;;;;;;2.93;1.90;;;5.60;99.90;;;;;;5100115;28;20180;-81
2021/10/01 04:15:49;;;;;;;1.90;1.60;;;5.70;99.90;;;;;;5101346;28;20195;-81
2021/10/01 04:18:15;;;;;;;1.70;1.60;;;5.70;99.90;;;;;;5100865;28;20222;-81
2021/10/01 04:20:43;;;;;;;1.50;1.23;;;5.80;99.90;;;;;;5100560;28;20175;-81
2021/10/01 04:23:09;;;;;;;1.60;1.50;;;5.80;99.90;;;;;;5101738;28;20175;-81
2021/10/01 04:25:35;;;;;;;2.17;1.97;;;5.80;99.90;;;;;;5100713;28;20406;-81
2021/10/01 04:28:00;;;;;;;1.70;1.60;;;5.80;99.90;;;;;;5101624;28;20289;-81
2021/10/01 04:30:26;;;;;;;2.00;1.50;;;5.80;99.90;;;;;;5100479;28;20589;-81
2021/10/01 04:33:01;;;;;;;2.97;1.40;;;5.80;99.90;;;;;;5099502;28;20233;-81
2021/10/01 04:35:27;;;;;;;2.27;2.03;;;5.80;99.90;;;;;;5100005;28;20198;-81
2021/10/01 04:37:53;;;;;;;3.37;1.70;;;5.80;99.90;;;;;;5099790;28;21002;-81
2021/10/01 04:40:19;;;;;;;4.03;1.60;;;5.80;99.90;;;;;;5100077;28;20402;-81
2021/10/01 04:42:44;;;;;;;2.10;1.90;;;5.80;99.90;;;;;;5098484;28;20184;-81
2021/10/01 04:45:10;;;;;;;2.37;1.47;;;5.80;99.90;;;;;;5099492;28;20176;-81
2021/10/01 04:47:37;;;;;;;1.90;1.70;;;5.80;99.90;;;;;;5098493;28;20283;-81
2021/10/01 04:50:05;;;;;;;2.60;1.47;;;5.80;99.90;;;;;;5099012;28;20180;-82
2021/10/01 04:52:31;;;;;;;2.13;1.80;;;5.80;99.90;;;;;;5098420;28;20446;-81
2021/10/01 04:54:56;;;;;;;3.13;1.70;;;5.80;99.90;;;;;;5101807;28;20217;-81
2021/10/01 04:57:22;;;;;;;4.07;1.53;;;5.70;99.90;;;;;;5099628;28;20192;-81
2021/10/01 04:59:48;;;;;;;5.33;1.60;;;5.70;99.90;;;;;;5099797;28;20251;-81
2021/10/01 05:02:13;;;;;;;1.70;1.57;;;5.70;99.90;;;;;;5099362;28;20172;-81
2021/10/01 05:04:39;;;;;;;4.17;1.40;;;5.70;99.90;;;;;;5097444;28;20179;-81
2021/10/01 05:07:05;;;;;;;3.10;1.50;;;5.60;99.90;;;;;;5100118;28;20172;-81
2021/10/01 05:09:31;;;;;;;5.00;1.87;;;5.60;99.90;;;;;;5102020;28;20257;-81
2021/10/01 05:11:56;;;;;;;1.67;1.57;;;5.60;99.90;;;;;;5100560;28;20191;-81
2021/10/01 05:14:22;;;;;;;2.80;1.53;;;5.60;99.90;;;;;;5100302;28;20179;-82
2021/10/01 05:16:48;;;;;;;2.00;1.80;;;5.60;99.90;;;;;;5100307;28;20204;-81
2021/10/01 05:19:13;;;;;;;3.83;1.80;;;5.60;99.90;;;;;;5101259;28;20196;-81
2021/10/01 05:21:39;;;;;;;3.33;1.70;;;5.60;99.90;;;;;;5101195;28;20176;-81
2021/10/01 05:24:05;;;;;;;2.03;1.60;;;5.70;99.90;;;;;;5100133;28;20207;-81
2021/10/01 05:26:30;;;;;;;2.63;1.70;;;5.80;99.90;;;;;;5101567;28;20189;-81
2021/10/01 05:28:57;;;;;;;1.77;1.60;;;5.70;99.90;;;;;;5092460;28;20674;-81
2021/10/01 05:31:23;;;;;;;3.13;1.73;;;5.70;99.90;;;;;;5079264;28;20654;-82
2021/10/01 05:33:49;;;;;;;5.33;1.80;;;5.70;99.90;;;;;;5079295;28;20499;-80
2021/10/01 05:36:17;;;;;;;2.47;1.80;;;5.80;99.90;;;;;;5078044;28;20674;-81
2021/10/01 05:38:43;;;;;;;3.13;1.50;;;5.70;99.90;;;;;;5079503;28;20196;-81
2021/10/01 05:41:12;;;;;;;4.13;1.30;;;5.80;99.90;;;;;;5078189;28;20415;-81
2021/10/01 05:43:38;;;;;;;2.47;1.40;;;;;;;;;;5077456;28;20180;-80
2021/10/01 05:46:03;;;;;;;3.33;1.60;;;5.80;99.90;;;;;;5077615;28;20419;-80
2021/10/01 05:48:32;;;;;;;1.80;1.50;;;5.90;99.90;;;;;;5078310;28;20443;-81
2021/10/01 05:51:04;;;;;;;1.93;1.40;;;5.90;99.90;;;;;;5076909;28;20185;-81
2021/10/01 05:53:45;;;;;;;6.27;1.70;;;6.00;99.90;;;;;;5076120;28;20752;-81
2021/10/01 05:56:12;;;;;;;2.23;1.70;;;6.10;99.90;;;;;;5075878;28;20478;-81
2021/10/01 05:58:40;;;;;;;2.47;1.57;;;6.10;99.90;;;;;;5082709;28;20443;-81
2021/10/01 06:01:07;;;;;;;2.67;1.50;;;6.10;99.90;;;;;;5081645;28;20415;-81
2021/10/01 06:03:33;;;;;;;3.73;1.70;;;6.20;99.90;;;;;;5081835;28;20790;-81
2021/10/01 06:05:59;;;;;;;3.87;1.40;;;6.30;99.90;;;;;;5081863;28;20407;-81
2021/10/01 06:08:25;;;;;;;2.17;1.73;;;6.30;99.90;;;;;;5082718;28;20196;-81
2021/10/01 06:10:50;;;;;;;2.43;1.50;;;6.30;99.90;;;;;;5081656;28;20173;-81
2021/10/01 06:13:16;;;;;;;4.37;1.40;;;6.30;99.90;;;;;;5080687;28;20180;-81
2021/10/01 06:15:43;;;;;;;2.67;1.90;;;6.30;99.90;;;;;;5079944;28;20196;-80
2021/10/01 06:18:08;;;;;;;2.10;1.80;;;6.40;99.90;;;;;;5082056;28;20709;-80
2021/10/01 06:20:34;;;;;;;4.97;1.83;;;6.40;99.90;;;;;;5081544;28;20416;-80
2021/10/01 06:23:00;;;;;;;4.10;2.00;;;6.40;99.90;;;;;;5083703;28;20198;-80
2021/10/01 06:25:25;;;;;;;3.97;1.60;;;6.60;99.90;;;;;;5082440;28;20172;-81
2021/10/01 06:27:51;;;;;;;2.97;1.70;;;6.60;99.90;;;;;;5082588;28;20196;-80
2021/10/01 06:30:17;;;;;;;3.90;1.70;;;6.60;99.90;;;;;;5083974;28;20188;-80
2021/10/01 06:32:44;;;;;;;3.40;1.83;;;6.70;99.90;;;;;;5080841;28;20172;-80
2021/10/01 06:35:10;;;;;;;3.47;1.60;;;6.80;99.90;;;;;;5080215;28;20204;-80
2021/10/01 06:37:36;;;;;;;3.50;1.57;;;6.90;99.90;;;;;;5080832;28;20458;-80
2021/10/01 06:40:04;;;;;;;3.37;1.33;;;7.00;99.90;;;;;;5081129;28;20435;-80
2021/10/01 06:42:29;;;;;;;3.90;1.87;;;7.20;99.90;;;;;;5080117;28;20169;-80
2021/10/01 06:44:56;;;;;;;1.27;1.17;;;7.40;99.90;;;;;;5080004;28;20427;-81
2021/10/01 06:53:09;;;;;;;3.87;1.80;;;7.50;99.90;;;;;;5083051;28;20453;-81
2021/10/01 08:20:34;;;;;;;4.73;0.90;;;15.00;99.90;;;;;;5097914;28;20194;-81
2021/10/01 08:22:59;;;;;;;1.37;0.90;;;14.60;99.90;;;;;;5097137;28;20205;-81
2021/10/01 08:25:25;;;;;;;1.93;0.90;;;14.80;99.90;;;;;;5097366;28;20232;-81
2021/10/01 08:27:51;;;;;;;1.23;0.80;;;15.10;99.90;;;;;;5085196;28;20196;-81
2021/10/01 08:30:17;;;;;;;1.50;0.90;;;15.40;99.90;;;;;;5084826;28;20177;-81
2021/10/01 08:32:43;;;;;;;1.77;0.90;;;15.70;99.90;;;;;;5083116;28;20705;-81
2021/10/01 08:35:10;;;;;;;2.67;1.17;;;16.10;99.90;;;;;;5083016;28;20258;-81
2021/10/01 08:37:36;;;;;;;2.77;0.97;;;16.60;99.90;;;;;;5085013;28;20190;-81
2021/10/01 08:40:03;;;;;;;1.07;0.80;;;17.00;99.90;;;;;;5083295;28;20185;-81
2021/10/01 08:42:30;;;;;;;6.20;1.03;;;17.40;99.90;;;;;;5085980;28;20224;-81
2021/10/01 08:44:56;;;;;;;3.60;1.23;;;17.50;99.90;;;;;;5083740;28;20272;-81
2021/10/01 08:47:24;;;;;;;1.77;0.93;;;17.90;99.90;;;;;;5084871;28;20190;-81
2021/10/01 08:49:50;;;;;;;3.03;1.47;;;18.20;99.90;;;;;;5084150;28;20217;-81
2021/10/01 08:52:18;;;;;;;2.07;1.50;;;18.40;99.90;;;;;;5083619;28;20172;-81
2021/10/01 08:54:44;;;;;;;2.77;1.40;;;18.70;99.90;;;;;;5082185;28;20180;-81
2021/10/01 08:57:11;;;;;;;2.40;1.27;;;19.10;99.90;;;;;;5081937;28;20196;-81
2021/10/01 08:59:37;;;;;;;1.20;0.90;;;19.30;99.90;;;;;;5080058;28;20219;-81
2021/10/01 09:02:03;;;;;;;2.63;1.20;;;19.60;99.90;;;;;;5082279;28;20225;-81
2021/10/01 09:04:29;;;;;;;7.60;1.33;;;19.70;99.90;;;;;;5082076;28;20179;-81
2021/10/01 09:06:57;;;;;;;2.27;0.80;;;19.80;99.90;;;;;;5079552;28;20177;-81
2021/10/01 09:09:40;;;;;;;1.27;0.83;;;20.10;99.90;;;;;;5080569;28;20173;-79
2021/10/01 09:12:07;;;;;;;0.60;0.50;;;20.40;99.90;;;;;;5081782;28;20177;-80
2021/10/01 09:15:08;;;;;;;1.77;1.00;;;20.50;99.40;;;;;;5082001;28;20178;-80
2021/10/01 09:17:34;;;;;;;3.30;0.87;;;20.40;99.90;;;;;;5049496;28;20248;-80
2021/10/01 09:20:01;;;;;;;1.43;0.67;;;20.40;99.90;;;;;;5082305;28;20219;-80
2021/10/01 09:22:36;;;;;;;0.60;0.60;;;20.40;99.90;;;;;;5081635;28;20269;-81
2021/10/01 09:25:22;;;;;;;0.80;0.70;;;20.70;99.90;;;;;;5081647;28;20227;-80
2021/10/01 09:27:51;;;;;;;1.03;0.60;;;20.80;98.00;;;;;;5082571;28;20681;-81
2021/10/01 09:30:20;;;;;;;0.80;0.50;;;21.10;99.90;;;;;;5082540;28;20174;-80
2021/10/01 09:33:11;;;;;;;1.00;0.80;;;21.30;98.80;;;;;;5081979;28;20177;-80
2021/10/01 09:35:37;;;;;;;0.83;0.60;;;21.30;99.90;;;;;;5082546;28;20152;-81
2021/10/01 09:38:08;;;;;;;2.57;0.90;;;21.50;96.70;;;;;;5083086;28;20197;-81
2021/10/01 09:40:35;;;;;;;0.87;0.77;;;21.70;99.90;;;;;;5082536;28;20195;-81
2021/10/01 09:43:00;;;;;;;1.20;0.60;;;21.90;99.90;;;;;;5087713;28;20187;-80
2021/10/01 09:45:26;;;;;;;1.83;0.97;;;22.10;99.60;;;;;;5094304;28;20177;-80
2021/10/01 09:47:52;;;;;;;1.90;0.90;;;22.30;97.40;;;;;;5094141;28;20197;-80
2021/10/01 09:50:30;;;;;;;2.60;0.93;;;22.40;98.80;;;;;;5087066;28;20193;-81
2021/10/01 09:53:06;;;;;;;4.63;0.90;;;22.50;99.90;;;;;;5079684;28;20185;-80
2021/10/01 09:55:41;;;;;;;0.70;0.60;;;22.80;99.90;;;;;;5078670;28;20182;-80
2021/10/01 09:58:17;;;;;;;0.90;0.80;;;22.80;99.10;;;;;;5080271;28;20548;-80
2021/10/01 10:00:48;;;;;;;0.73;0.60;;;22.90;99.90;;;;;;5080807;28;20169;-80
2021/10/01 10:03:28;;;;;;;2.10;0.90;;;23.10;96.50;;;;;;5077612;28;20178;-81
2021/10/01 10:06:07;;;;;;;2.10;0.77;;;23.10;99.60;;;;;;5079269;28;20162;-80
2021/10/01 10:08:43;;;;;;;1.57;1.00;;;23.20;98.00;;;;;;5079343;28;20535;-81
2021/10/01 10:11:13;;;;;;;1.23;0.70;;;23.10;99.90;;;;;;5077826;28;20181;-81
2021/10/01 10:13:54;;;;;;;1.60;0.77;;;23.20;99.30;;;;;;5078057;28;20240;-81
2021/10/01 10:16:29;;;;;;;0.83;0.70;;;23.10;97.00;;;;;;5078536;28;20228;-81
2021/10/01 10:19:07;;;;;;;0.90;0.90;;;23.20;99.20;;;;;;5077828;28;20204;-81
2021/10/01 10:21:34;;;;;;;1.90;0.87;;;23.40;97.30;;;;;;5078114;28;20182;-80
2021/10/01 10:24:01;;;;;;;1.33;0.90;;;23.40;96.80;;;;;;5077784;28;20188;-81
2021/10/01 10:26:27;;;;;;;0.80;0.80;;;23.50;98.00;;;;;;5078060;28;20181;-81
2021/10/01 10:28:58;;;;;;;0.90;0.80;;;23.50;95.30;;;;;;5079947;28;20197;-81
2021/10/01 10:31:29;;;;;;;1.47;0.90;;;23.60;96.40;;;;;;5080102;28;20196;-81
2021/10/01 10:33:58;;;;;;;5.63;0.80;;;23.60;97.20;;;;;;5080022;28;20197;-80
2021/10/01 10:36:35;;;;;;;4.90;1.20;;;23.80;95.20;;;;;;5079927;28;20246;-81
2021/10/01 10:39:10;;;;;;;2.10;0.90;;;23.80;97.50;;;;;;5080482;28;20226;-81
2021/10/01 10:41:39;;;;;;;1.37;0.70;;;24.20;94.20;;;;;;5080626;28;20169;-81
2021/10/01 10:44:05;;;;;;;0.70;0.70;;;24.20;94.20;;;;;;5078989;28;20176;-81
2021/10/01 10:46:37;;;;;;;1.07;0.90;;;24.40;93.60;;;;;;5079017;28;20653;-80
2021/10/01 10:49:18;;;;;;;1.43;1.00;;;24.40;95.00;;;;;;5078470;28;20199;-81
2021/10/01 10:52:12;;;;;;;5.73;1.00;;;24.70;95.90;;;;;;5078191;28;20183;-81
2021/10/01 10:55:11;;;;;;;2.13;0.90;;;24.60;92.50;;;;;;5080012;28;20264;-80
2021/10/01 10:57:38;;;;;;;3.17;1.17;;;24.70;92.80;;;;;;5078587;28;20565;-82
2021/10/01 11:00:28;;;;;;;2.73;0.83;;;24.70;91.70;;;;;;5078943;28;20267;-81
2021/10/01 11:03:24;;;;;;;4.53;0.80;;;24.30;94.00;;;;;;5073720;28;20219;-81
2021/10/01 11:06:08;;;;;;;1.90;0.93;;;24.60;94.00;;;;;;5084328;28;20198;-81
2021/10/01 11:08:38;;;;;;;1.33;0.90;;;25.20;91.90;;;;;;5084229;28;20196;-81
2021/10/01 11:11:05;;;;;;;1.17;0.90;;;25.60;93.50;;;;;;5084700;28;20181;-81
2021/10/01 11:13:33;;;;;;;2.17;1.23;;;25.70;88.30;;;;;;5085781;28;20182;-80
2021/10/01 11:16:13;;;;;;;1.67;0.80;;;25.50;83.80;;;;;;5085277;28;20192;-81
2021/10/01 11:18:45;;;;;;;1.63;1.10;;;25.10;90.90;;;;;;5083557;28;20215;-81
2021/10/01 11:21:36;;;;;;;1.63;0.90;;;25.20;92.50;;;;;;5085477;28;20172;-81
2021/10/01 11:24:15;;;;;;;1.00;0.70;;;25.30;87.90;;;;;;5082666;28;20701;-81
2021/10/01 11:26:56;;;;;;;1.13;1.07;;;25.60;84.00;;;;;;5085450;28;20153;-80
2021/10/01 11:29:33;;;;;;;5.17;1.40;;;25.70;80.90;;;;;;5093907;28;20178;-80
2021/10/01 11:32:08;;;;;;;3.60;0.90;;;26.10;87.10;;;;;;5094197;28;20181;-80
2021/10/01 11:34:39;;;;;;;3.47;1.00;;;26.90;84.40;;;;;;5091917;28;20200;-81
2021/10/01 11:37:19;;;;;;;1.63;0.87;;;26.60;83.70;;;;;;5082084;28;20180;-81
2021/10/01 11:39:45;;;;;;;1.27;0.87;;;26.50;85.30;;;;;;5081623;28;20200;-81
2021/10/01 11:42:23;;;;;;;2.17;1.00;;;26.80;81.50;;;;;;5092922;28;20173;-80
2021/10/01 11:44:50;;;;;;;3.87;1.00;;;26.70;79.60;;;;;;5094044;28;20183;-81
2021/10/01 11:47:15;;;;;;;4.13;1.00;;;26.50;80.80;;;;;;5089165;28;20198;-80
2021/10/01 11:49:41;;;;;;;2.73;1.07;;;26.50;79.40;;;;;;5080637;28;20193;-81
2021/10/01 11:52:10;;;;;;;2.17;1.10;;;26.80;82.80;;;;;;5080423;28;20681;-81
2021/10/01 11:54:36;;;;;;;1.43;0.97;;;26.60;81.00;;;;;;5079032;28;20182;-80
2021/10/01 11:57:08;;;;;;;1.83;1.30;;;27.00;82.00;;;;;;5079402;28;20174;-80
2021/10/01 11:59:53;;;;;;;2.80;0.90;;;27.50;78.40;;;;;;5078750;28;20194;-82
2021/10/01 12:02:28;;;;;;;2.80;0.77;;;28.10;77.70;;;;;;5077926;28;20570;-80
2021/10/01 12:04:55;;;;;;;1.73;1.00;;;28.40;80.60;;;;;;5076677;28;20189;-81
2021/10/01 12:07:20;;;;;;;5.37;1.27;;;28.30;72.90;;;;;;5079362;28;20674;-81
2021/10/01 12:10:05;;;;;;;5.47;1.17;;;28.10;71.30;;;;;;5079662;28;20195;-81
2021/10/01 12:12:30;;;;;;;3.00;1.13;;;28.00;72.40;;;;;;5080094;28;20268;-81
2021/10/01 12:14:56;;;;;;;1.37;0.90;;;28.40;78.80;;;;;;5078628;28;20633;-81
2021/10/01 12:17:22;;;;;;;1.97;1.20;;;29.00;73.30;;;;;;5080499;28;20207;-81
2021/10/01 12:19:47;;;;;;;2.23;1.10;;;29.00;69.20;;;;;;5080625;28;20227;-81
2021/10/01 12:22:15;;;;;;;4.07;1.03;;;29.10;74.00;;;;;;5078495;28;20581;-81
2021/10/01 12:24:49;;;;;;;3.20;1.37;;;29.30;67.50;;;;;;5079125;28;20639;-81
2021/10/01 12:27:17;;;;;;;1.20;1.10;;;28.90;71.10;;;;;;5078582;28;20189;-80
2021/10/01 12:29:48;;;;;;;2.37;1.20;;;28.70;66.20;;;;;;5080568;28;20179;-81
2021/10/01 12:32:15;;;;;;;1.50;1.17;;;28.60;68.70;;;;;;5078840;28;20237;-81
2021/10/01 12:34:49;;;;;;;2.17;1.00;;;29.10;65.10;;;;;;5079918;28;20239;-81
2021/10/01 12:37:18;;;;;;;1.40;1.30;;;29.70;67.80;;;;;;5080149;28;20194;-81
2021/10/01 12:39:49;;;;;;;3.70;1.40;;;29.90;65.60;;;;;;5079911;28;20197;-83
2021/10/01 12:42:22;;;;;;;1.10;1.00;;;30.40;62.60;;;;;;5080494;28;20632;-82
2021/10/01 12:45:19;;;;;;;2.63;1.20;;;30.20;62.70;;;;;;5080426;28;20173;-81
2021/10/01 12:47:49;;;;;;;1.53;1.20;;;30.70;62.20;;;;;;5079058;28;20204;-81
2021/10/01 12:50:29;;;;;;;2.13;1.00;;;31.20;68.10;;;;;;5081499;28;20280;-80
2021/10/01 12:52:57;;;;;;;2.93;1.40;;;31.90;59.90;;;;;;5080221;28;20162;-81
2021/10/01 12:55:23;;;;;;;1.43;1.33;;;31.40;58.70;;;;;;5081281;28;20638;-82
2021/10/01 12:57:51;;;;;;;1.83;1.67;;;31.30;58.40;;;;;;5081069;28;20205;-81
2021/10/01 13:00:30;;;;;;;2.60;1.30;;;31.20;58.20;;;;;;5080157;28;20175;-81
2021/10/01 13:03:08;;;;;;;1.97;1.57;;;31.20;60.00;;;;;;5080295;28;20239;-81
2021/10/01 13:05:34;;;;;;;1.90;1.70;;;30.80;58.30;;;;;;5081892;28;20576;-81
2021/10/01 13:08:01;;;;;;;1.87;1.67;;;30.40;60.30;;;;;;5080494;28;20200;-81
2021/10/01 13:10:48;;;;;;;2.40;1.60;;;30.70;61.10;;;;;;5080040;28;20172;-81
2021/10/01 13:13:17;;;;;;;2.27;1.97;;;31.00;61.80;;;;;;5080187;28;20218;-81
2021/10/01 13:15:47;;;;;;;4.27;1.90;;;30.80;56.90;;;;;;5079834;28;20723;-81
2021/10/01 13:18:22;;;;;;;2.07;1.87;;;30.90;60.40;;;;;;5081891;28;20205;-81
2021/10/01 13:20:47;;;;;;;2.50;2.27;;;31.40;59.10;;;;;;5086377;28;20187;-81
2021/10/01 13:23:27;;;;;;;2.90;2.20;;;31.60;55.70;;;;;;5096413;28;20171;-81
2021/10/01 13:25:54;;;;;;;2.67;2.43;;;30.90;57.80;;;;;;5087241;28;20174;-81
2021/10/01 13:28:24;;;;;;;2.40;2.20;;;30.40;58.60;;;;;;5090994;28;20196;-80
2021/10/01 13:30:50;;;;;;;2.80;2.40;;;30.80;58.40;;;;;;5089871;28;20197;-81
2021/10/01 13:33:17;;;;;;;3.07;2.80;;;30.90;56.90;;;;;;5084941;28;20209;-81
2021/10/01 13:35:43;;;;;;;2.70;2.50;;;30.80;55.90;;;;;;5086086;28;20213;-81
2021/10/01 13:38:10;;;;;;;2.83;2.63;;;30.60;59.20;;;;;;5086186;28;20281;-81
2021/10/01 13:40:37;;;;;;;3.10;2.80;;;31.00;55.40;;;;;;5088712;28;20193;-82
2021/10/01 13:43:03;;;;;;;5.13;2.83;;;31.00;56.70;;;;;;5093080;28;20173;-81
2021/10/01 13:45:29;;;;;;;4.80;2.70;;;31.00;57.40;;;;;;5089117;28;20178;-82
2021/10/01 13:47:55;;;;;;;4.30;2.73;;;30.80;56.90;;;;;;5091039;28;20197;-80
2021/10/01 13:50:22;;;;;;;3.33;2.60;;;31.10;58.60;;;;;;5092367;28;20196;-80
2021/10/01 13:52:48;;;;;;;3.13;2.70;;;30.30;55.90;;;;;;5091881;28;20197;-80
2021/10/01 13:55:15;;;;;;;4.23;2.60;;;29.70;57.70;;;;;;5082585;28;20637;-80
2021/10/01 13:57:42;;;;;;;3.20;2.90;;;29.80;59.00;;;;;;5084040;28;20272;-80
2021/10/01 14:00:10;;;;;;;4.37;2.87;;;29.30;57.10;;;;;;5080416;28;20169;-80
2021/10/01 14:02:38;;;;;;;3.80;3.40;;;29.00;60.30;;;;;;5079998;28;20174;-79
2021/10/01 14:05:05;;;;;;;3.17;2.87;;;28.70;57.50;;;;;;5081135;28;20163;-80
2021/10/01 14:07:31;;;;;;;3.30;3.00;;;28.30;58.70;;;;;;5080878;28;20212;-80
2021/10/01 14:09:59;;;;;;;3.93;2.77;;;28.60;61.30;;;;;;5075745;28;20179;-80
2021/10/01 14:12:28;;;;;;;3.00;2.70;;;28.50;59.50;;;;;;5077396;28;20219;-80
2021/10/01 14:14:54;;;;;;;3.00;2.63;;;28.40;59.20;;;;;;5075690;28;20173;-81
2021/10/01 14:17:19;;;;;;;4.10;2.70;;;28.10;58.10;;;;;;5077180;28;20201;-81
2021/10/01 14:19:45;;;;;;;3.90;2.60;;;27.70;59.50;;;;;;5077823;28;20201;-81
2021/10/01 14:22:11;;;;;;;2.57;2.37;;;27.30;60.40;;;;;;5077636;28;20626;-82
2021/10/01 14:24:37;;;;;;;2.40;2.17;;;26.30;66.00;;;;;;5076388;28;20192;-82
2021/10/01 14:27:05;;;;;;;4.87;2.83;;;25.30;63.20;;;;;;5088154;28;20187;-81
2021/10/01 14:29:31;;;;;;;3.63;2.80;;;24.50;65.30;;;;;;5096385;28;20179;-83
2021/10/01 14:31:57;;;;;;;3.13;2.57;;;23.70;67.00;;;;;;5096786;28;20176;-82
2021/10/01 14:34:22;;;;;;;3.50;2.97;;;22.90;70.30;;;;;;5098360;28;20209;-81
2021/10/01 14:36:49;;;;;;;3.60;2.67;;;22.50;70.90;;;;;;5094489;28;20185;-80